createdAt,value
2017-08-02T00:03:28.984Z,20.40
2017-08-02T00:08:32.149Z,20.10
2017-08-02T00:13:35.342Z,19.90
2017-08-02T00:18:38.512Z,19.60
2017-08-02T00:23:41.712Z,19.60
2017-08-02T00:28:45.006Z,19.60
2017-08-02T00:33:48.933Z,19.60
2017-08-02T00:38:52.886Z,19.70
2017-08-02T00:43:56.178Z,19.60
2017-08-02T00:48:59.373Z,19.50
2017-08-02T00:54:02.590Z,19.50
2017-08-02T00:59:05.798Z,19.50
2017-08-02T01:04:09.041Z,19.60
2017-08-02T01:09:12.371Z,19.50
2017-08-02T01:14:15.545Z,19.60
2017-08-02T01:19:18.704Z,19.50
2017-08-02T01:24:22.664Z,20.00
2017-08-02T01:29:25.872Z,20.00
2017-08-02T01:34:29.023Z,19.90
2017-08-02T01:39:32.209Z,19.70
2017-08-02T01:44:35.414Z,19.70
2017-08-02T01:49:38.612Z,19.80
2017-08-02T01:54:41.797Z,19.90
2017-08-02T01:59:44.993Z,19.80
2017-08-02T02:04:48.927Z,19.70
2017-08-02T02:09:52.394Z,19.60
2017-08-02T02:14:55.586Z,19.50
2017-08-02T02:19:58.810Z,19.80
2017-08-02T02:25:01.991Z,19.80
2017-08-02T02:30:05.182Z,19.60
2017-08-02T02:35:08.430Z,19.60
2017-08-02T02:40:11.628Z,19.60
2017-08-02T02:45:14.982Z,19.50
2017-08-02T02:50:18.910Z,19.40
2017-08-02T02:55:22.173Z,19.40
2017-08-02T03:00:25.352Z,19.20
2017-08-02T03:05:28.645Z,19.10
2017-08-02T03:10:31.829Z,19.20
2017-08-02T03:15:35.017Z,19.30
2017-08-02T03:20:39.012Z,18.90
2017-08-02T03:25:42.215Z,18.90
2017-08-02T03:30:45.399Z,20.10
2017-08-02T03:35:48.602Z,21.80
2017-08-02T03:40:51.777Z,20.60
2017-08-02T03:45:55.750Z,19.30
2017-08-02T03:50:58.945Z,19.20
2017-08-02T03:56:02.120Z,18.90
2017-08-02T04:01:06.121Z,18.80
2017-08-02T04:06:09.322Z,18.80
2017-08-02T04:11:12.518Z,18.60
2017-08-02T04:16:15.727Z,18.70
2017-08-02T04:21:18.989Z,18.60
2017-08-02T04:26:22.215Z,18.50
2017-08-02T04:31:25.404Z,18.70
2017-08-02T04:36:28.578Z,18.80
2017-08-02T04:41:31.779Z,18.80
2017-08-02T04:46:35.010Z,19.00
2017-08-02T04:51:38.973Z,19.30
2017-08-02T04:56:42.165Z,19.30
2017-08-02T05:01:45.341Z,19.30
2017-08-02T05:06:49.302Z,19.10
2017-08-02T05:11:52.481Z,19.10
2017-08-02T05:16:55.673Z,19.30
2017-08-02T05:21:59.885Z,20.10
2017-08-02T05:27:03.098Z,20.10
2017-08-02T05:32:06.385Z,20.50
2017-08-02T05:37:09.563Z,20.40
2017-08-02T05:42:12.767Z,20.80
2017-08-02T05:47:15.950Z,22.60
2017-08-02T05:52:19.902Z,24.70
2017-08-02T05:57:23.082Z,24.70
2017-08-02T06:02:26.265Z,25.20
2017-08-02T06:07:29.443Z,25.20
2017-08-02T06:12:32.650Z,23.50
2017-08-02T06:17:35.956Z,23.70
2017-08-02T06:22:39.137Z,22.20
2017-08-02T06:27:42.315Z,22.30
2017-08-02T06:32:46.282Z,22.00
2017-08-02T06:37:49.465Z,21.90
2017-08-02T06:42:52.653Z,24.10
2017-08-02T06:47:56.619Z,24.80
2017-08-02T06:52:59.793Z,24.70
2017-08-02T06:58:03.748Z,26.70
2017-08-02T07:03:06.944Z,26.70
2017-08-02T07:08:10.125Z,26.20
2017-08-02T07:13:14.073Z,26.50
2017-08-02T07:18:18.032Z,26.50
2017-08-02T07:23:21.209Z,27.70
2017-08-02T07:28:24.377Z,27.20
2017-08-02T07:33:28.366Z,28.30
2017-08-02T07:38:31.557Z,28.30
2017-08-02T07:43:34.841Z,27.00
2017-08-02T07:48:38.032Z,25.80
2017-08-02T07:53:41.991Z,25.90
2017-08-02T07:58:45.185Z,25.80
2017-08-02T08:03:48.383Z,27.30
2017-08-02T08:08:52.318Z,28.80
2017-08-02T08:13:55.487Z,28.80
2017-08-02T08:18:59.460Z,28.60
2017-08-02T08:24:02.623Z,28.50
2017-08-02T08:29:06.707Z,26.00
2017-08-02T08:34:09.986Z,25.90
2017-08-02T08:39:13.203Z,26.90
2017-08-02T08:44:16.378Z,27.90
2017-08-02T08:49:20.337Z,28.40
2017-08-02T08:54:23.639Z,28.50
2017-08-02T08:59:26.829Z,28.30
2017-08-02T09:04:30.775Z,28.00
2017-08-02T09:09:33.965Z,28.00
2017-08-02T09:14:37.162Z,28.70
2017-08-02T09:19:41.152Z,28.30
2017-08-02T09:24:44.341Z,28.30
2017-08-02T09:29:47.811Z,28.30
2017-08-02T09:34:51.193Z,28.00
2017-08-02T09:39:54.415Z,28.30
2017-08-02T09:44:58.473Z,28.00
2017-08-02T09:50:01.742Z,28.00
2017-08-02T09:55:05.749Z,27.50
2017-08-02T10:00:09.602Z,27.50
2017-08-02T10:05:13.549Z,27.40
2017-08-02T10:10:16.757Z,27.40
2017-08-02T10:15:19.939Z,27.90
2017-08-02T10:20:23.909Z,28.60
2017-08-02T10:25:27.097Z,28.60
2017-08-02T10:30:30.317Z,28.80
2017-08-02T10:35:34.340Z,28.20
2017-08-02T10:40:37.561Z,28.20
2017-08-02T10:45:40.764Z,28.30
2017-08-02T10:50:43.961Z,28.60
2017-08-02T10:55:47.130Z,29.00
2017-08-02T11:00:51.089Z,28.70
2017-08-02T11:05:54.400Z,28.70
2017-08-02T11:10:57.574Z,28.90
2017-08-02T11:16:01.528Z,29.40
2017-08-02T11:21:04.874Z,29.40
2017-08-02T11:26:08.209Z,29.60
2017-08-02T11:31:12.268Z,29.20
2017-08-02T11:36:15.482Z,29.20
2017-08-02T11:41:18.722Z,29.10
2017-08-02T11:46:21.930Z,29.30
2017-08-02T11:51:25.145Z,29.20
2017-08-02T11:56:28.470Z,29.40
2017-08-02T12:01:32.513Z,29.90
2017-08-02T12:06:36.499Z,29.30
2017-08-02T12:11:39.869Z,29.30
2017-08-02T12:16:43.067Z,29.30
2017-08-02T12:21:46.354Z,29.50
2017-08-02T12:26:50.344Z,29.40
2017-08-02T12:31:53.704Z,29.40
2017-08-02T12:36:57.055Z,29.30
2017-08-02T12:42:00.294Z,29.30
2017-08-02T12:47:03.551Z,29.50
2017-08-02T12:52:06.757Z,29.30
2017-08-02T12:57:09.950Z,29.90
2017-08-02T13:02:13.203Z,29.70
2017-08-02T13:07:16.378Z,29.70
2017-08-02T13:12:19.607Z,29.20
2017-08-02T13:17:22.938Z,29.10
2017-08-02T13:22:26.431Z,29.20
2017-08-02T13:27:29.632Z,29.50
2017-08-02T13:32:32.817Z,29.40
2017-08-02T13:37:36.036Z,29.70
2017-08-02T13:42:39.369Z,29.40
2017-08-02T13:47:42.554Z,29.50
2017-08-02T13:52:45.892Z,29.10
2017-08-02T13:57:49.081Z,29.30
2017-08-02T14:02:52.264Z,29.20
2017-08-02T14:07:55.574Z,29.00
2017-08-02T14:12:58.768Z,29.10
2017-08-02T14:18:01.995Z,29.10
2017-08-02T14:23:05.464Z,29.40
2017-08-02T14:28:10.661Z,29.00
2017-08-02T14:33:13.838Z,28.90
2017-08-02T14:38:17.778Z,28.70
2017-08-02T14:43:20.976Z,28.70
2017-08-02T14:48:24.224Z,29.10
2017-08-02T14:53:27.397Z,29.20
2017-08-02T14:58:30.571Z,29.20
2017-08-02T15:03:34.521Z,28.90
2017-08-02T15:08:37.784Z,28.80
2017-08-02T15:13:40.993Z,29.00
2017-08-02T15:18:44.242Z,28.90
2017-08-02T15:23:47.433Z,28.90
2017-08-02T15:28:51.386Z,28.70
2017-08-02T15:33:54.591Z,28.70
2017-08-02T15:38:58.166Z,28.70
2017-08-02T15:44:01.366Z,28.60
2017-08-02T15:49:04.605Z,28.90
2017-08-02T15:54:07.793Z,28.80
2017-08-02T15:59:11.794Z,28.70
2017-08-02T16:04:15.148Z,28.70
2017-08-02T16:09:18.383Z,28.70
2017-08-02T16:14:21.585Z,28.50
2017-08-02T16:19:24.767Z,28.10
2017-08-02T16:24:28.718Z,28.40
2017-08-02T16:29:31.964Z,28.40
2017-08-02T16:34:35.146Z,28.40
2017-08-02T16:39:38.345Z,28.40
2017-08-02T16:44:41.765Z,28.30
2017-08-02T16:49:45.031Z,28.10
2017-08-02T16:54:48.282Z,28.20
2017-08-02T16:59:51.756Z,28.20
2017-08-02T17:04:55.109Z,28.30
2017-08-02T17:09:58.294Z,28.20
2017-08-02T17:15:01.626Z,28.00
2017-08-02T17:20:04.837Z,27.80
2017-08-02T17:25:08.878Z,27.70
2017-08-02T17:30:12.088Z,27.80
2017-08-02T17:35:15.278Z,27.60
2017-08-02T17:40:18.477Z,27.70
2017-08-02T17:45:21.706Z,27.70
2017-08-02T17:50:24.986Z,27.70
2017-08-02T17:55:28.501Z,27.60
2017-08-02T18:00:31.700Z,27.50
2017-08-02T18:05:34.874Z,27.40
2017-08-02T18:10:38.089Z,27.00
2017-08-02T18:15:41.344Z,26.70
2017-08-02T18:20:44.544Z,26.50
2017-08-02T18:25:47.753Z,26.00
2017-08-02T18:30:51.154Z,25.90
2017-08-02T18:35:54.621Z,25.60
2017-08-02T18:40:58.279Z,25.20
2017-08-02T18:46:01.682Z,24.90
2017-08-02T18:51:04.969Z,24.80
2017-08-02T18:56:08.959Z,24.50
2017-08-02T19:01:12.526Z,24.50
2017-08-02T19:06:15.765Z,24.50
2017-08-02T19:11:20.328Z,24.40
2017-08-02T19:16:23.929Z,24.20
2017-08-02T19:21:27.111Z,24.10
2017-08-02T19:26:30.314Z,24.20
2017-08-02T19:31:33.830Z,24.20
2017-08-02T19:36:37.373Z,24.10
2017-08-02T19:41:40.862Z,24.00
2017-08-02T19:46:44.101Z,23.50
2017-08-02T19:51:47.287Z,23.20
2017-08-02T19:56:50.706Z,22.90
2017-08-02T20:01:54.061Z,22.70
2017-08-02T20:06:58.094Z,22.40
2017-08-02T20:12:01.457Z,22.40
2017-08-02T20:17:04.792Z,22.40
2017-08-02T20:22:08.064Z,22.40
2017-08-02T20:27:11.246Z,22.50
2017-08-02T20:32:14.469Z,22.50
2017-08-02T20:37:17.662Z,22.40
2017-08-02T20:42:20.852Z,22.30
2017-08-02T20:47:24.808Z,21.90
2017-08-02T20:52:28.021Z,21.90
2017-08-02T20:57:31.311Z,21.80
2017-08-02T21:02:34.638Z,21.70
2017-08-02T21:07:38.291Z,21.60
2017-08-02T21:12:41.528Z,21.80
2017-08-02T21:17:45.454Z,21.30
2017-08-02T21:22:48.709Z,21.30
2017-08-02T21:27:51.909Z,21.10
2017-08-02T21:32:55.125Z,21.00
2017-08-02T21:37:58.320Z,20.80
2017-08-02T21:43:01.588Z,20.70
2017-08-02T21:48:04.817Z,20.70
2017-08-02T21:53:08.125Z,20.80
2017-08-02T21:58:11.310Z,20.80
2017-08-02T22:03:14.569Z,20.60
2017-08-02T22:08:18.407Z,20.60
2017-08-02T22:13:21.614Z,20.60
2017-08-02T22:18:24.757Z,20.60
2017-08-02T22:23:27.971Z,20.70
2017-08-02T22:28:31.157Z,20.50
2017-08-02T22:33:35.098Z,20.40
2017-08-02T22:38:38.278Z,20.40
2017-08-02T22:43:42.429Z,20.30
2017-08-02T22:48:46.418Z,20.10
2017-08-02T22:53:49.676Z,20.10
2017-08-02T22:58:52.865Z,20.30
2017-08-02T23:03:56.043Z,20.50
2017-08-02T23:08:59.238Z,20.60
2017-08-02T23:14:02.420Z,20.60
2017-08-02T23:19:05.614Z,20.60
2017-08-02T23:24:08.811Z,20.30
2017-08-02T23:29:12.036Z,20.00
2017-08-02T23:34:15.225Z,19.90
2017-08-02T23:39:18.396Z,19.90
2017-08-02T23:44:22.364Z,19.90
2017-08-02T23:49:25.557Z,19.90
2017-08-02T23:54:28.750Z,20.10
2017-08-02T23:59:32.708Z,20.20
